Terminal Aerodrome Forecast
Issued by NWS Pueblo, CO

Home | Current Version | Previous Version | Text Only | Print | Product List | Glossary On
Versions: 1 2 3 4 5 6 7 8 9 10 11 12 13 14 15 16 17 18 19 20 21 22 23 24 25 26 27 28 29 30 31 32 33 34 35 36 37
000
FTUS45 KPUB 290522
TAFCOS
TAF
KCOS 290522Z 2906/3006 04007KT P6SM SCT150
     FM291600 17008KT P6SM FEW110 SCT250
     FM291900 16013KT P6SM SCT100 SCT250
     FM300100 16008KT P6SM SCT250=

USA.gov is the U.S. government's official web portal to all federal, state and local government web resources and services.